最新記事更新情報
4月 17日 18時 05分 更新  |  国内重大事件

【アシアナ航空事故】 マスコミの「着陸直前に濃霧」報道は 大 嘘 だと確定キタ━━━━(゚∀゚)━━━━!! 空港職員?が当時の画像を公開!!!!

 
0
tweet
はてブ
いいね!

【アシアナ航空事故】 マスコミの「着陸直前に濃霧」報道は 大 嘘 だと確定キタ━━━━(゚∀゚)━━━━!! 空港職員?が当時の画像を公開!!!!

アシアナ機事故の広島空港、濃霧の難所 山を開き造成

アシアナ航空機の事故で、現場となった広島空港(広島県三原市)は標高300メートル超の高台にあり、気流が乱れやすく、霧が発生しやすい空港だった。霧を理由にした欠航が相次ぎ、計器着陸装置(ILS)が導入された経緯があった。

アシアナ機事故、広島空港欠航続く 人的ミスの可能性も

広島空港は1993年10月に開港した、中国地方では唯一の国管理の空港だ。山を切り開いて造成されたため、標高は331メートル。国土交通省によると、管制官がいる空港では日本で一番、標高が高いという。

開港当初は2500メートルだった滑走路は2001年に3千メートルに延ばされた。国内・国際線をあわせた年間利用者数は、14年度で271万人。02年度には過去最高の344万人が利用した。国内線は5路線で週175便、国際線は4路線で週28便が現在運航している。

[朝日 2015.4.16]
http://www.asahi.com/articles/photo/AS20150416001268.html




13: 名無しさん@1周年 2015/04/16(木) 14:17:52.87 ID:rBrYHE7eO.net.net
うわぁ
ミヤネヤ
「視界が直前に急に悪化」の文字をサブリミナル効果使った。
何でもありだなw

引用元: 【社会】アシアナ機事故の広島空港、濃霧の難所 山を開き造成


【ムラムラ注意】平愛梨ちゃんの体がめっちゃエッロwwwwwwwwwww

【画像あり】巨大乳アピールする女子高生がなんかエロいwwwwwwwww

女性芸能人のハメ撮り動画がxvideosで大量流出キタ━━(゚∀゚)━━!!

【ボッキ不可避】AV女優のイベント行った奴の末路wwwwwwww

【ロリ注意】オッパイがちょっと膨らんできてワロタwwwwwwww

【衝撃画像】Fランのヤリサーの姫をご覧くださいwwwwwwwwww

↓1日1クリックでチョンが大発狂するらしいですwwww


25: 名無しさん@1周年 2015/04/16(木) 14:21:47.41 ID:RW3ITBj/0.net.net
>>13
みやねやのパイロット経験者の解説だと
霧は普通によくあること
特に海の近くで霧の多い空港は多いとのことだよ。

森本?さんは広島が特別なようなことを言っているが・・
この人素人??

170: 名無しさん@1周年 2015/04/16(木) 14:41:03.68 ID:Y4wRjjr90.net.net
>>25
あのオッサン、必死に擁護しても
パイロット経験者にバッサバサ否定されまくってて面白かった

205: 名無しさん@1周年 2015/04/16(木) 14:47:28.17 ID:NSl+18Uc0.net.net
>>25
森本はパイロット経験者じゃないから。

今回の事故はパイロットが下手くそすぎる事故だろ?
古いタイプとまで言われたしね。

アシアナのパイロットは試験から何から問題有りって
ロサンゼルスの墜落事故で分かるだろ?
謎光を虚言して捜査妨害したりねえ。

458: 名無しさん@1周年 2015/04/16(木) 15:13:55.37 ID:I/GyN4bw0.net.net
>>13
悪天候ね

事故直後の広島空港
no title

471: 名無しさん@1周年 2015/04/16(木) 15:15:02.07 ID:EeRqKt4O0.net.net
>>458
霧はどこにいったの?
http://bitly.com/16klaAd

487: 名無しさん@1周年 2015/04/16(木) 15:16:18.53 ID:IfViZ/8h0.net.net
>>471
そんなものそもそもないし
朝日いわく3分で出て消えちまったそうだぜw>謎霧

506: 名無しさん@1周年 2015/04/16(木) 15:18:34.56 ID:9OMTYrZM0.net.net
>>471
小雨で少し霧があったというだけで視界不良になる霧じゃないよ
だいたい視界不良だったといったのはパイロットだけ

478: 名無しさん@1周年 2015/04/16(木) 15:15:28.03 ID:2q1J93m60.net.net
>>458
あまり視界よくないね

522: 名無しさん@1周年 2015/04/16(木) 15:20:13.76 ID:2OeOWhdn0.net.net
>>478
そりゃ、滑走路の規定のコースから外れてるからな

498: 名無しさん@1周年 2015/04/16(木) 15:18:00.72 ID:HQtMVx800.net.net
>>458
左上の赤色灯くっきり見えるな
一瞬だけ濃霧だったのかねぇ、気象の神秘やで

648: 名無しさん@1周年 2015/04/16(木) 15:32:08.42 ID:18D2ScX50.net.net
>>498
まるでアメドラの天候を操る超人がでてきたかのような設定だよね

信じると思ってなめてんの?

528: 名無しさん@1周年 2015/04/16(木) 15:20:41.99 ID:LAOHxG+k0.net.net
>>458
天候の変化が激しかったのは確か
RJOA 141118Z 15003KT 5000 PRFG BR FEW000 SCT005 BKN012 09/09 Q1007 RMK 1ST000 4ST005 6CU012 A2974 FG BANK E-S
RJOA 141108Z VRB02KT 4000 R28/0300VP1800D -SHRA PRFG FEW000 SCT005 BKN012 09/08 Q1006 RMK 1ST000 4ST005 6CU012 A2973 1500E FG E-S
RJOA 141100Z VRB02KT 6000 -SHRA PRFG FEW000 SCT012 BKN020 09/08 Q1006



575: 名無しさん@1周年 2015/04/16(木) 15:25:04.45 ID:9OMTYrZM0.net.net
>>528
気象が悪かったなら
事故直後でどうやってマスゴミのヘリ飛ばしていたんだよ

だいたい待てばいいだけだろ

それもせず着陸強硬したんだからパイロットの判断能力が悪いだけじゃん

529: 名無しさん@1周年 2015/04/16(木) 15:20:47.23 ID:aqjZaGYq0.net.net
>>458
この状況下でマスゴミはヘリ飛ばしてんだろw
VFRでさw 視界悪く無いじゃんw
ビジビリティ悪いと管制官は絶対に
許可出さないからな

人的ミスだろ

955: 名無しさん@1周年 2015/04/16(木) 15:58:02.42 ID:fPs70fyp0.net.net
>>458
くっそワロタw

マスゴミの霧や気流協調ほんと悪質だな
チョン機長のこと追及しようともしない
http://amzn.to/1KpIUjr


981: 名無しさん@1周年 2015/04/16(木) 16:01:19.67 ID:3ZcRstSH0.net.net
>>955
実のところ、今日の午前中に気象庁が3時間ほど落ちてたのって
まさか…とは思った
1001:<丶`∀´>(´・ω・`)(`ハ´  )さん:2014/03/1(日) 12:34:56.78 ID:toua2chdqn

韓国人「日本が戦争でインドネシアに謝罪してない事についてどう思う?」

韓国人「1988年、ソウルオリンピック直前の韓国の街並みがクッソ汚いwww」

韓国人「これを読めば分かる、朝鮮と日本の違いwwwwww」

韓国人「日本の女子高生と韓国の女子高生を描いてみた」→ 結果wwwwww

韓国人「嫌韓のメッカ台湾のストリートファッションをご覧下さいwwww」

韓国人「住宅街で行われたストリートファイトがヤバイwwwww」

韓国人「アジアの大学トップ10を見てみよう」→「韓国人と日本人の学力差ww」

韓国人「最近の日本の風俗店がヤバイwwwwww これはハマるわwwwww」

韓国人「韓国男は、こういう日本女に出会うべき

韓国人「1930年代の日本を見てみようwwwww」

リツイート・コメントランキング
カテゴリ: 国内重大事件

シェアする

人気サイト最新記事